Terminal Aerodrome Forecast
Issued by NWS

Home | Current Version | Previous Version | Graphics & Text | Print | Product List | Glossary On
Versions: 1 2 3 4 5 6 7 8 9 10 11 12 13 14 15 16 17 18 19
000
FTUS43 KABR 031300 AAA
TAFATY
TAF AMD
KATY 031334Z 0314/0412 35005KT P6SM SKC
      TEMPO 0314/0315 5SM BR
     FM031500 01016G25KT P6SM FEW150
     FM040100 01007KT P6SM SCT200=

USA.gov is the U.S. government's official web portal to all federal, state and local government web resources and services.